Time;durP1;ratioP1;P1;durP2;ratioP2;P2;SDS_P1;SDS_P2;PMS_P1;PMS_P2;Temp;Humidity;BMP_temperature;BMP_pressure;BME280_temperature;BME280_humidity;BME280_pressure;Samples;Min_cycle;Max_cycle;Signal;HPM_P1;HPM_P2
2021/05/31 00:01:54;;;;;;;39.65;24.15;;;11.00;99.90;;;;;;5079423;28;20032;-63
2021/05/31 00:04:21;;;;;;;43.30;23.70;;;11.10;99.90;;;;;;5076681;28;20397;-61
2021/05/31 00:07:08;;;;;;;39.53;23.65;;;11.10;99.90;;;;;;5084457;28;20123;-61
2021/05/31 00:09:35;;;;;;;40.58;24.95;;;11.20;99.90;;;;;;5068098;28;20028;-62
2021/05/31 00:12:03;;;;;;;40.03;24.65;;;11.30;99.90;;;;;;5080655;28;20078;-61
2021/05/31 00:14:29;;;;;;;44.30;24.52;;;11.30;99.90;;;;;;5080370;28;20023;-61
2021/05/31 00:16:55;;;;;;;40.40;24.85;;;11.20;99.90;;;;;;5078085;28;20036;-61
2021/05/31 00:19:21;;;;;;;41.72;26.05;;;11.10;99.90;;;;;;5071641;28;20474;-61
2021/05/31 00:21:47;;;;;;;40.08;24.80;;;11.10;99.90;;;;;;5075061;28;20481;-62
2021/05/31 00:24:13;;;;;;;34.40;24.33;;;11.00;99.90;;;;;;5078474;28;20518;-62
2021/05/31 00:26:39;;;;;;;35.55;24.55;;;10.90;99.90;;;;;;5070711;28;20166;-61
2021/05/31 00:29:05;;;;;;;48.58;28.73;;;10.90;99.90;;;;;;5076195;28;20040;-61
2021/05/31 00:31:31;;;;;;;41.65;26.92;;;10.90;99.90;;;;;;5072782;28;20094;-61
2021/05/31 00:33:57;;;;;;;43.90;26.38;;;10.90;99.90;;;;;;5071540;28;20047;-60
2021/05/31 00:36:23;;;;;;;43.25;27.30;;;10.90;99.90;;;;;;5072633;28;20036;-60
2021/05/31 00:38:49;;;;;;;44.88;27.73;;;10.90;99.90;;;;;;5078327;28;20016;-60
2021/05/31 00:41:15;;;;;;;47.63;27.15;;;10.90;99.90;;;;;;5071703;28;20137;-61
2021/05/31 00:43:41;;;;;;;40.05;27.58;;;10.90;99.90;;;;;;5069641;28;20493;-62
2021/05/31 00:46:09;;;;;;;44.05;27.75;;;10.90;99.90;;;;;;5072913;28;20043;-61
2021/05/31 00:48:35;;;;;;;46.05;27.65;;;10.90;99.90;;;;;;5070228;28;20040;-62
2021/05/31 00:51:03;;;;;;;48.33;28.75;;;11.00;99.90;;;;;;5071801;28;20028;-61
2021/05/31 00:53:30;;;;;;;39.55;26.50;;;11.00;99.90;;;;;;5071645;28;20024;-61
2021/05/31 00:55:56;;;;;;;42.00;27.77;;;10.90;99.90;;;;;;5078310;28;20035;-62
2021/05/31 00:58:27;;;;;;;40.08;27.38;;;10.80;99.90;;;;;;5071677;28;20133;-62
2021/05/31 01:00:54;;;;;;;43.78;28.08;;;10.80;99.90;;;;;;5071237;28;20021;-62
2021/05/31 01:03:20;;;;;;;41.72;28.95;;;10.70;99.90;;;;;;5071537;28;20707;-61
2021/05/31 01:05:47;;;;;;;44.45;27.55;;;10.60;99.90;;;;;;5079734;28;20027;-61
2021/05/31 01:08:17;;;;;;;44.38;28.52;;;10.60;99.90;;;;;;5072567;28;20041;-61
2021/05/31 01:10:49;;;;;;;45.45;28.98;;;10.60;99.90;;;;;;5080883;28;20025;-61
2021/05/31 01:13:19;;;;;;;44.65;27.73;;;10.70;99.90;;;;;;5074935;28;20055;-62
2021/05/31 01:16:04;;;;;;;42.85;27.63;;;10.70;99.90;;;;;;5080040;28;20474;-60
2021/05/31 01:18:44;;;;;;;43.65;27.80;;;10.70;99.90;;;;;;5074395;28;20041;-61
2021/05/31 01:21:27;;;;;;;41.63;27.63;;;10.70;99.90;;;;;;5071534;28;20115;-61
2021/05/31 01:24:08;;;;;;;40.47;26.85;;;10.70;99.90;;;;;;5069092;28;20077;-62
2021/05/31 01:26:59;;;;;;;39.65;27.05;;;10.70;99.90;;;;;;5075065;28;20036;-62
2021/05/31 01:29:26;;;;;;;37.08;25.48;;;10.70;99.90;;;;;;5064646;28;20037;-62
2021/05/31 01:32:03;;;;;;;42.58;25.70;;;10.70;99.90;;;;;;5075740;28;20028;-61
2021/05/31 01:34:33;;;;;;;40.55;25.38;;;10.70;99.90;;;;;;5081401;28;20378;-61
2021/05/31 01:37:05;;;;;;;34.90;25.70;;;10.70;99.90;;;;;;5073051;28;20032;-61
2021/05/31 01:39:34;;;;;;;42.85;26.58;;;10.60;99.90;;;;;;5061155;28;20505;-61
2021/05/31 01:42:00;;;;;;;38.33;26.08;;;10.60;99.90;;;;;;5076733;28;20856;-61
2021/05/31 01:44:26;;;;;;;40.10;25.77;;;10.50;99.90;;;;;;5078511;28;20081;-61
2021/05/31 01:46:52;;;;;;;37.00;25.85;;;10.50;99.90;;;;;;5075223;28;20036;-60
2021/05/31 01:49:19;;;;;;;41.65;25.55;;;10.40;99.90;;;;;;5080073;28;20021;-62
2021/05/31 01:51:46;;;;;;;38.22;24.80;;;10.40;99.90;;;;;;5078755;28;20032;-61
2021/05/31 01:54:15;;;;;;;35.10;24.08;;;10.40;99.90;;;;;;5079411;28;20060;-60
2021/05/31 01:56:44;;;;;;;38.42;24.90;;;10.50;99.90;;;;;;5082668;28;20065;-61
2021/05/31 01:59:10;;;;;;;35.75;23.50;;;10.40;99.90;;;;;;5069122;28;20376;-62
2021/05/31 02:01:36;;;;;;;36.17;24.52;;;10.40;99.90;;;;;;5082790;28;20118;-62
2021/05/31 02:04:02;;;;;;;35.50;23.80;;;10.40;99.90;;;;;;5076611;28;20107;-61
2021/05/31 02:06:27;;;;;;;40.70;25.48;;;10.40;99.90;;;;;;5071324;28;20040;-61
2021/05/31 02:08:53;;;;;;;42.42;26.95;;;10.20;99.90;;;;;;5075266;28;20471;-61
2021/05/31 02:11:38;;;;;;;39.63;26.77;;;10.20;99.90;;;;;;5078837;28;20077;-61
2021/05/31 02:14:09;;;;;;;40.35;26.90;;;10.20;99.90;;;;;;5078582;28;20060;-62
2021/05/31 02:16:49;;;;;;;42.33;27.33;;;10.20;99.90;;;;;;5081150;28;20028;-62
2021/05/31 02:19:18;;;;;;;39.85;24.40;;;10.20;99.90;;;;;;5076599;28;20075;-62
2021/05/31 02:21:44;;;;;;;37.05;22.98;;;10.20;99.90;;;;;;5080241;28;20048;-62
2021/05/31 02:24:11;;;;;;;33.58;22.95;;;10.30;99.90;;;;;;5072480;28;20028;-60
2021/05/31 02:26:37;;;;;;;36.90;22.98;;;10.30;99.90;;;;;;5083981;28;20033;-61
2021/05/31 02:29:03;;;;;;;33.53;23.38;;;10.20;99.90;;;;;;5082991;28;20032;-60
2021/05/31 02:31:31;;;;;;;34.40;22.55;;;10.30;99.90;;;;;;5081804;28;20115;-62
2021/05/31 02:33:57;;;;;;;33.95;22.40;;;10.20;99.90;;;;;;5078894;28;20124;-62
2021/05/31 02:36:24;;;;;;;33.75;22.70;;;10.20;99.90;;;;;;5074424;28;20037;-60
2021/05/31 02:38:50;;;;;;;35.47;22.85;;;10.10;99.90;;;;;;5075700;28;20069;-62
2021/05/31 02:41:15;;;;;;;35.78;24.00;;;10.10;99.90;;;;;;5079416;28;20056;-61
2021/05/31 02:43:41;;;;;;;34.45;24.00;;;10.10;99.90;;;;;;5083272;28;20327;-61
2021/05/31 02:46:07;;;;;;;34.42;24.35;;;10.00;99.90;;;;;;5092770;28;20044;-61
2021/05/31 02:48:33;;;;;;;38.25;23.00;;;10.00;99.90;;;;;;5088081;28;20069;-62
2021/05/31 02:50:59;;;;;;;38.15;23.88;;;10.00;99.90;;;;;;5075064;28;20024;-60
2021/05/31 02:53:26;;;;;;;34.05;23.75;;;10.10;99.90;;;;;;5074138;28;20443;-61
2021/05/31 02:55:52;;;;;;;38.45;24.55;;;10.10;99.90;;;;;;5079375;28;20103;-61
2021/05/31 02:58:18;;;;;;;37.05;24.70;;;9.90;99.90;;;;;;5081043;28;20055;-62
2021/05/31 03:00:44;;;;;;;34.70;23.35;;;9.90;99.90;;;;;;5073298;28;20060;-61
2021/05/31 03:03:10;;;;;;;37.88;24.48;;;9.90;99.90;;;;;;5072255;28;20028;-61
2021/05/31 03:05:37;;;;;;;39.00;24.48;;;9.90;99.90;;;;;;5070418;28;20043;-60
2021/05/31 03:08:02;;;;;;;36.67;24.70;;;10.00;99.90;;;;;;5064661;28;20040;-63
2021/05/31 03:10:30;;;;;;;35.40;24.83;;;9.90;99.90;;;;;;5075917;28;20508;-62
2021/05/31 03:12:58;;;;;;;41.58;24.95;;;10.00;99.90;;;;;;5075096;28;20032;-62
2021/05/31 03:15:23;;;;;;;37.45;25.45;;;9.90;99.90;;;;;;5079497;28;20040;-62
2021/05/31 03:17:50;;;;;;;37.03;25.77;;;9.90;99.90;;;;;;5075879;28;20039;-62
2021/05/31 03:20:18;;;;;;;34.90;24.42;;;9.90;99.90;;;;;;5092231;28;20460;-60
2021/05/31 03:22:43;;;;;;;33.72;23.38;;;9.80;99.90;;;;;;5073414;28;20166;-61
2021/05/31 03:25:10;;;;;;;34.75;23.77;;;9.80;99.90;;;;;;5079190;28;20072;-63
2021/05/31 03:27:37;;;;;;;32.58;23.30;;;9.70;99.90;;;;;;5074896;28;20042;-61
2021/05/31 03:30:09;;;;;;;32.00;23.38;;;9.60;99.90;;;;;;5074074;28;20040;-61
2021/05/31 03:32:36;;;;;;;39.67;23.60;;;9.60;99.90;;;;;;5082255;28;20051;-62
2021/05/31 03:35:04;;;;;;;28.60;22.25;;;9.60;99.90;;;;;;5083320;28;20036;-63
2021/05/31 03:37:30;;;;;;;64.95;24.58;;;9.60;99.90;;;;;;5076229;28;20098;-61
2021/05/31 03:39:55;;;;;;;41.85;24.98;;;9.60;99.90;;;;;;5070655;28;20474;-61
2021/05/31 03:42:21;;;;;;;33.40;24.05;;;9.50;99.90;;;;;;5082584;28;20097;-62
2021/05/31 03:44:47;;;;;;;33.78;25.23;;;9.50;99.90;;;;;;5071666;28;20078;-61
2021/05/31 03:47:13;;;;;;;32.67;24.75;;;9.50;99.90;;;;;;5072826;28;20040;-63
2021/05/31 03:49:39;;;;;;;42.00;26.35;;;9.50;99.90;;;;;;5076149;28;20364;-62
2021/05/31 03:52:05;;;;;;;38.63;25.73;;;9.50;99.90;;;;;;5080836;28;20386;-60
2021/05/31 03:54:31;;;;;;;37.20;24.70;;;9.50;99.90;;;;;;5071402;28;20033;-62
2021/05/31 03:56:56;;;;;;;35.38;24.60;;;9.60;99.90;;;;;;5080215;28;20040;-60
2021/05/31 03:59:23;;;;;;;33.58;22.95;;;9.60;99.90;;;;;;5069535;28;20115;-61
2021/05/31 04:01:51;;;;;;;31.92;23.08;;;9.50;99.90;;;;;;5080349;28;20031;-60
2021/05/31 04:04:16;;;;;;;36.55;23.73;;;9.50;99.90;;;;;;5070198;28;20078;-61
2021/05/31 04:12:00;;;;;;;30.33;21.33;;;9.40;99.90;;;;;;5084194;28;20030;-60
2021/05/31 04:14:26;;;;;;;33.95;21.75;;;9.40;99.90;;;;;;5078940;28;20039;-64
2021/05/31 04:16:55;;;;;;;34.25;20.05;;;9.40;99.90;;;;;;5073172;28;20044;-60
2021/05/31 04:19:23;;;;;;;26.00;19.67;;;9.30;99.90;;;;;;5072332;28;20500;-62
2021/05/31 04:21:52;;;;;;;25.00;19.15;;;9.40;99.90;;;;;;5067707;28;20028;-62
2021/05/31 04:24:18;;;;;;;34.40;18.73;;;9.40;99.90;;;;;;5077170;28;20036;-61
2021/05/31 04:26:46;;;;;;;25.95;19.63;;;9.30;99.90;;;;;;5083590;28;20119;-62
2021/05/31 04:29:14;;;;;;;31.67;20.20;;;9.30;99.90;;;;;;5071921;28;20052;-62
2021/05/31 04:31:41;;;;;;;28.63;20.08;;;9.30;99.90;;;;;;5074931;28;20047;-62
2021/05/31 04:34:09;;;;;;;27.42;19.65;;;9.30;99.90;;;;;;5084368;28;20063;-60
2021/05/31 04:36:35;;;;;;;26.45;19.15;;;9.40;99.90;;;;;;5074772;28;20309;-61
2021/05/31 04:39:04;;;;;;;27.90;19.25;;;9.50;99.90;;;;;;5073594;28;20111;-62
2021/05/31 04:41:31;;;;;;;33.05;20.13;;;9.50;99.90;;;;;;5077939;28;20028;-60
2021/05/31 04:43:58;;;;;;;33.55;20.23;;;9.60;99.90;;;;;;5078876;28;20028;-59
2021/05/31 04:46:23;;;;;;;32.17;19.83;;;9.70;99.90;;;;;;5070359;28;20098;-61
2021/05/31 04:48:49;;;;;;;28.73;19.75;;;9.70;99.90;;;;;;5073600;28;20060;-63
2021/05/31 04:51:15;;;;;;;33.97;20.25;;;9.70;99.90;;;;;;5074445;28;20497;-62
2021/05/31 04:53:40;;;;;;;31.05;19.65;;;9.80;99.90;;;;;;5074251;28;20031;-62
2021/05/31 04:56:09;;;;;;;29.90;20.63;;;9.80;99.90;;;;;;5078546;28;20111;-61
2021/05/31 04:58:35;;;;;;;34.63;20.88;;;9.80;99.90;;;;;;5070848;28;20036;-62
2021/05/31 05:01:00;;;;;;;31.58;19.25;;;9.90;99.90;;;;;;5072263;28;20024;-63
2021/05/31 05:03:26;;;;;;;34.55;21.75;;;9.90;99.90;;;;;;5071530;28;20441;-62
2021/05/31 05:05:52;;;;;;;39.08;22.30;;;9.90;99.90;;;;;;5072125;28;20123;-62
2021/05/31 05:08:17;;;;;;;37.40;22.73;;;9.90;99.90;;;;;;5072341;28;20041;-62
2021/05/31 05:10:43;;;;;;;35.40;22.25;;;10.00;99.90;;;;;;5072105;28;20397;-62
2021/05/31 05:13:10;;;;;;;41.50;23.92;;;9.90;99.90;;;;;;5070933;28;20025;-61
2021/05/31 05:15:36;;;;;;;46.58;22.85;;;10.00;99.90;;;;;;5080872;28;20028;-61
2021/05/31 05:18:02;;;;;;;37.55;23.15;;;10.00;99.90;;;;;;5075094;28;20802;-61
2021/05/31 05:20:30;;;;;;;40.88;23.38;;;10.10;99.90;;;;;;5070314;28;20034;-61
2021/05/31 05:22:56;;;;;;;48.17;24.70;;;10.10;99.90;;;;;;5081526;28;20090;-60
2021/05/31 05:25:22;;;;;;;37.70;23.33;;;10.10;99.90;;;;;;5080573;28;20041;-61
2021/05/31 05:27:51;;;;;;;38.33;23.33;;;10.10;99.90;;;;;;5076264;28;20090;-61
2021/05/31 05:30:23;;;;;;;43.22;23.58;;;10.10;99.90;;;;;;5074676;28;20066;-60
2021/05/31 05:32:51;;;;;;;42.22;24.63;;;10.20;99.90;;;;;;5078537;28;20363;-61
2021/05/31 05:35:29;;;;;;;50.15;26.00;;;10.20;99.90;;;;;;5063466;28;20055;-62
2021/05/31 05:43:16;;;;;;;45.95;25.55;;;10.40;99.90;;;;;;5080530;28;20021;-60
2021/05/31 05:46:01;;;;;;;42.35;25.63;;;10.40;99.90;;;;;;5072349;28;20029;-59
2021/05/31 05:48:30;;;;;;;44.25;24.48;;;10.40;99.90;;;;;;5082666;28;20028;-62
2021/05/31 05:51:06;;;;;;;43.50;24.60;;;10.50;99.90;;;;;;5074009;28;20107;-60
2021/05/31 05:53:37;;;;;;;38.88;24.60;;;10.50;99.90;;;;;;5066666;28;20039;-60
2021/05/31 05:56:07;;;;;;;46.88;25.88;;;10.60;99.90;;;;;;5069439;28;20165;-62
2021/05/31 05:58:33;;;;;;;52.15;27.05;;;10.70;99.90;;;;;;5078212;28;20029;-60
2021/05/31 06:01:00;;;;;;;44.30;26.35;;;10.70;99.90;;;;;;5072794;28;20047;-59
2021/05/31 06:03:27;;;;;;;48.30;26.48;;;10.80;99.90;;;;;;5079381;28;20028;-61
2021/05/31 06:05:56;;;;;;;47.00;27.20;;;10.80;99.90;;;;;;5083905;28;20103;-60
2021/05/31 06:08:23;;;;;;;51.95;27.40;;;10.90;99.90;;;;;;5069841;28;20486;-59
2021/05/31 06:10:49;;;;;;;44.75;26.65;;;10.90;99.90;;;;;;5071040;28;20031;-60
2021/05/31 06:13:15;;;;;;;45.53;26.23;;;11.00;99.90;;;;;;5083318;28;20032;-61
2021/05/31 06:15:41;;;;;;;47.38;27.10;;;11.10;99.90;;;;;;5071220;28;20040;-60
2021/05/31 06:18:07;;;;;;;45.72;26.55;;;11.10;99.90;;;;;;5081958;28;20036;-59
2021/05/31 06:20:35;;;;;;;44.10;26.35;;;11.20;99.90;;;;;;5069874;28;20056;-60
2021/05/31 06:23:02;;;;;;;44.85;27.65;;;11.30;99.90;;;;;;5076126;28;20050;-61
2021/05/31 06:25:27;;;;;;;38.83;25.02;;;11.30;99.90;;;;;;5071165;28;20501;-59
2021/05/31 06:27:53;;;;;;;43.90;26.23;;;11.40;99.90;;;;;;5071108;28;20116;-61
2021/05/31 06:30:20;;;;;;;43.80;26.55;;;11.60;99.90;;;;;;5080080;28;20086;-61
2021/05/31 06:32:45;;;;;;;43.35;26.05;;;11.70;99.90;;;;;;5069192;28;20119;-60
2021/05/31 06:35:11;;;;;;;44.50;26.63;;;11.80;99.90;;;;;;5071908;28;20544;-61
2021/05/31 06:37:38;;;;;;;46.45;27.23;;;11.80;99.90;;;;;;5076640;28;20038;-60
2021/05/31 06:40:12;;;;;;;46.28;26.05;;;11.90;99.90;;;;;;5076985;28;20036;-61
2021/05/31 06:42:43;;;;;;;46.63;28.15;;;11.90;99.90;;;;;;5081401;28;20060;-61
2021/05/31 06:45:12;;;;;;;44.00;27.10;;;12.00;99.90;;;;;;5064730;28;20036;-60
2021/05/31 06:47:38;;;;;;;50.85;27.25;;;12.20;99.90;;;;;;5087612;28;20032;-60
2021/05/31 06:50:06;;;;;;;42.65;27.65;;;12.30;99.90;;;;;;5087968;28;20040;-60
2021/05/31 06:52:32;;;;;;;48.30;27.27;;;12.30;99.90;;;;;;5079173;28;20043;-61
2021/05/31 06:54:58;;;;;;;42.20;26.95;;;12.40;99.90;;;;;;5082027;28;20032;-60
2021/05/31 06:57:24;;;;;;;42.88;26.90;;;12.50;99.90;;;;;;5077542;28;20551;-59
2021/05/31 06:59:50;;;;;;;45.05;27.67;;;12.70;99.90;;;;;;5080835;28;20032;-59
2021/05/31 07:02:16;;;;;;;43.28;26.60;;;12.80;99.90;;;;;;5078771;28;20085;-59
2021/05/31 07:04:41;;;;;;;43.95;26.50;;;13.00;99.90;;;;;;5078792;28;20063;-63
2021/05/31 07:07:07;;;;;;;43.80;26.60;;;13.20;99.90;;;;;;5075535;28;20035;-61
2021/05/31 07:09:33;;;;;;;42.33;26.88;;;13.30;99.90;;;;;;5086835;28;20028;-60
2021/05/31 07:11:59;;;;;;;40.88;26.58;;;13.40;99.90;;;;;;5077948;28;20031;-62
2021/05/31 07:14:33;;;;;;;41.38;25.88;;;13.70;99.90;;;;;;5083462;28;20469;-60
2021/05/31 07:17:00;;;;;;;39.42;25.75;;;14.00;99.90;;;;;;5072390;28;20082;-60
2021/05/31 07:19:26;;;;;;;39.03;26.08;;;14.20;99.90;;;;;;5072515;28;20043;-60
2021/05/31 07:21:52;;;;;;;44.15;26.02;;;14.40;99.90;;;;;;5075261;28;20115;-59
2021/05/31 07:24:18;;;;;;;43.72;23.92;;;14.70;99.90;;;;;;5078793;28;20447;-60
2021/05/31 07:26:43;;;;;;;39.10;22.92;;;15.00;99.90;;;;;;5076305;28;20056;-60
2021/05/31 07:29:09;;;;;;;36.08;22.75;;;15.20;99.90;;;;;;5084733;28;20032;-60
2021/05/31 07:31:35;;;;;;;33.67;22.55;;;15.40;99.90;;;;;;5083126;28;20028;-60
2021/05/31 07:34:01;;;;;;;38.70;23.08;;;15.60;99.90;;;;;;5072860;28;20036;-60
2021/05/31 07:36:27;;;;;;;38.25;22.52;;;15.90;99.90;;;;;;5072248;28;20462;-61
2021/05/31 07:38:53;;;;;;;31.50;21.90;;;16.40;99.90;;;;;;5079034;28;20059;-61
2021/05/31 07:41:19;;;;;;;32.95;21.20;;;16.70;99.90;;;;;;5075315;28;20031;-60
2021/05/31 07:43:45;;;;;;;28.85;19.25;;;16.90;99.90;;;;;;5068383;28;20031;-61
2021/05/31 07:46:13;;;;;;;29.73;20.02;;;16.80;99.90;;;;;;5079585;28;20024;-59
2021/05/31 07:48:42;;;;;;;31.60;20.15;;;17.00;99.90;;;;;;5074205;28;20059;-61
2021/05/31 07:51:19;;;;;;;33.03;20.42;;;17.40;99.90;;;;;;5074035;28;20052;-62
2021/05/31 07:53:51;;;;;;;29.58;19.50;;;17.60;99.90;;;;;;5075043;28;20035;-61
2021/05/31 07:56:18;;;;;;;37.28;21.17;;;17.70;99.90;;;;;;5078877;28;20047;-60
2021/05/31 07:58:45;;;;;;;30.98;19.08;;;17.70;99.90;;;;;;5079913;28;20032;-60
2021/05/31 08:01:12;;;;;;;33.63;19.60;;;18.10;99.90;;;;;;5083866;28;20039;-61
2021/05/31 08:03:40;;;;;;;34.95;20.88;;;18.30;99.90;;;;;;5073744;28;20032;-59
2021/05/31 08:06:06;;;;;;;34.88;20.48;;;18.40;99.90;;;;;;5073200;28;20371;-61
2021/05/31 08:08:32;;;;;;;28.27;19.05;;;18.40;99.90;;;;;;5078292;28;20020;-61
2021/05/31 08:10:58;;;;;;;30.45;17.40;;;18.50;99.90;;;;;;5074637;28;20481;-60
2021/05/31 08:13:25;;;;;;;27.67;17.95;;;18.70;99.90;;;;;;5073026;28;20029;-61
2021/05/31 08:15:52;;;;;;;24.58;16.25;;;18.80;99.90;;;;;;5082983;28;20462;-61
2021/05/31 08:18:18;;;;;;;26.45;16.73;;;19.30;99.90;;;;;;5085707;28;20059;-62
2021/05/31 08:20:45;;;;;;;24.20;16.83;;;19.50;99.90;;;;;;5077481;28;20020;-63
2021/05/31 08:23:10;;;;;;;30.33;17.35;;;19.50;99.90;;;;;;5077847;28;20024;-60
2021/05/31 08:25:36;;;;;;;24.02;15.65;;;19.80;99.90;;;;;;5072729;28;20047;-60
2021/05/31 08:28:03;;;;;;;24.00;16.02;;;19.50;99.90;;;;;;5072836;28;20039;-60
2021/05/31 08:30:34;;;;;;;28.45;16.13;;;19.90;99.90;;;;;;5074321;28;20118;-60
2021/05/31 08:33:00;;;;;;;25.58;15.27;;;20.10;99.90;;;;;;5069892;28;20032;-62
2021/05/31 08:35:26;;;;;;;23.88;14.55;;;20.40;99.90;;;;;;5080666;28;20028;-60
2021/05/31 08:37:52;;;;;;;24.63;13.38;;;20.90;99.90;;;;;;5071680;28;20378;-60
2021/05/31 08:40:18;;;;;;;22.08;14.02;;;21.10;99.90;;;;;;5082283;28;20501;-60
2021/05/31 08:42:45;;;;;;;22.58;13.65;;;21.10;99.90;;;;;;5074779;28;20024;-61
2021/05/31 08:45:14;;;;;;;24.27;13.68;;;21.20;99.90;;;;;;5080447;28;20032;-60
2021/05/31 08:47:45;;;;;;;25.83;13.88;;;21.30;99.90;;;;;;5070126;28;20044;-60
2021/05/31 08:50:18;;;;;;;22.95;13.40;;;21.30;99.90;;;;;;5075844;28;20020;-60
2021/05/31 08:52:44;;;;;;;23.90;13.73;;;21.40;99.90;;;;;;5064572;28;20501;-61
2021/05/31 08:55:12;;;;;;;21.15;13.07;;;21.60;99.90;;;;;;5073857;28;20526;-62
2021/05/31 08:57:38;;;;;;;23.67;13.07;;;21.30;99.90;;;;;;5071941;28;20154;-60
2021/05/31 09:00:06;;;;;;;24.55;13.05;;;21.50;99.90;;;;;;5077165;28;20466;-62
2021/05/31 09:02:34;;;;;;;21.80;13.13;;;21.60;99.90;;;;;;5074283;28;20028;-64
2021/05/31 09:05:00;;;;;;;23.20;12.25;;;22.00;99.90;;;;;;5081176;28;20085;-61
2021/05/31 09:07:26;;;;;;;22.40;12.20;;;22.20;99.90;;;;;;5085522;28;20036;-61
2021/05/31 09:09:55;;;;;;;25.23;12.60;;;22.10;99.90;;;;;;5078838;28;20404;-61
2021/05/31 09:12:27;;;;;;;22.20;12.13;;;22.20;99.90;;;;;;5080665;28;20138;-61
2021/05/31 09:15:10;;;;;;;17.48;10.73;;;22.20;99.90;;;;;;5077106;28;20032;-61
2021/05/31 09:17:40;;;;;;;20.83;11.80;;;22.20;99.90;;;;;;5071959;28;20112;-60
2021/05/31 09:20:07;;;;;;;29.77;12.25;;;22.00;99.90;;;;;;5069830;28;20218;-60
2021/05/31 09:22:47;;;;;;;21.05;11.95;;;22.20;99.90;;;;;;5075339;28;20035;-60
2021/05/31 09:25:24;;;;;;;17.23;11.10;;;22.40;99.90;;;;;;5067216;28;20067;-60
2021/05/31 09:27:52;;;;;;;45.25;11.82;;;22.40;99.90;;;;;;5070044;28;20054;-59
2021/05/31 09:30:19;;;;;;;16.52;10.50;;;22.50;99.90;;;;;;5069479;28;20032;-59
2021/05/31 09:32:51;;;;;;;17.88;10.40;;;22.60;99.90;;;;;;5076099;28;20047;-63
2021/05/31 09:35:22;;;;;;;22.20;10.43;;;22.60;99.90;;;;;;5074306;28;20028;-61
2021/05/31 09:37:50;;;;;;;16.40;10.05;;;22.30;99.90;;;;;;5068701;28;20029;-61
2021/05/31 09:40:24;;;;;;;16.88;10.40;;;22.60;99.90;;;;;;5070614;28;20021;-61
2021/05/31 09:42:59;;;;;;;24.67;10.60;;;22.90;99.90;;;;;;5068779;28;20036;-60
2021/05/31 09:45:26;;;;;;;15.20;9.07;;;22.80;99.90;;;;;;5070734;28;20024;-61
2021/05/31 09:47:52;;;;;;;15.65;10.23;;;23.10;99.90;;;;;;5071292;28;20091;-61
2021/05/31 09:50:26;;;;;;;17.52;10.27;;;23.00;99.90;;;;;;5060986;28;20486;-62
2021/05/31 09:53:21;;;;;;;19.55;9.32;;;23.00;99.90;;;;;;5069256;28;20107;-61
2021/05/31 09:55:47;;;;;;;16.15;9.68;;;23.20;99.90;;;;;;5056859;28;20048;-61
2021/05/31 09:58:18;;;;;;;15.82;9.40;;;23.20;99.90;;;;;;5066390;28;20031;-61
2021/05/31 10:00:51;;;;;;;18.92;9.15;;;23.00;99.90;;;;;;5070507;28;20031;-60
2021/05/31 10:03:43;;;;;;;17.58;9.40;;;22.90;99.90;;;;;;5067962;28;20026;-61
2021/05/31 10:06:21;;;;;;;17.40;8.73;;;23.20;99.90;;;;;;5069780;28;20127;-61
2021/05/31 10:08:46;;;;;;;14.68;7.70;;;23.50;99.90;;;;;;5069763;28;20052;-60
2021/05/31 10:11:14;;;;;;;15.40;8.63;;;23.60;99.90;;;;;;5069993;28;20052;-59
2021/05/31 10:13:41;;;;;;;17.55;9.35;;;23.30;99.90;;;;;;5069029;28;20025;-61
2021/05/31 10:16:08;;;;;;;20.63;9.73;;;23.40;99.90;;;;;;5069914;28;20530;-60
2021/05/31 10:18:40;;;;;;;17.17;8.93;;;22.90;99.90;;;;;;5067003;28;20045;-60
2021/05/31 10:21:07;;;;;;;15.73;8.52;;;23.10;99.90;;;;;;5072773;28;20124;-61
2021/05/31 10:23:33;;;;;;;17.30;8.93;;;22.80;99.90;;;;;;5073525;28;20017;-60
2021/05/31 10:26:02;;;;;;;15.00;8.13;;;23.10;99.90;;;;;;5073770;28;20398;-61
2021/05/31 10:28:39;;;;;;;17.15;8.50;;;23.40;99.90;;;;;;5073316;28;20059;-61
2021/05/31 10:31:07;;;;;;;13.98;8.23;;;23.40;99.90;;;;;;5074352;28;20559;-61
2021/05/31 10:33:40;;;;;;;19.65;8.18;;;23.50;99.90;;;;;;5072597;28;20075;-60
2021/05/31 10:36:20;;;;;;;14.57;7.93;;;23.40;99.90;;;;;;5073821;28;20047;-59
2021/05/31 10:38:50;;;;;;;18.05;7.93;;;23.50;99.90;;;;;;5071772;28;20463;-61
2021/05/31 10:41:18;;;;;;;18.90;9.05;;;23.60;99.90;;;;;;5073255;28;20541;-61
2021/05/31 10:43:45;;;;;;;16.20;7.80;;;23.40;99.90;;;;;;5072893;28;20359;-60
2021/05/31 10:46:16;;;;;;;18.08;7.78;;;23.20;99.90;;;;;;5072628;28;20073;-61
2021/05/31 10:48:51;;;;;;;16.05;7.45;;;23.20;99.90;;;;;;5078355;28;20024;-61
2021/05/31 10:51:27;;;;;;;;;;;23.30;99.90;;;;;;5076652;28;20541;-62
2021/05/31 10:53:54;;;;;;;16.58;7.57;;;23.50;99.90;;;;;;5073065;28;19904;-61
2021/05/31 10:56:27;;;;;;;13.95;7.20;;;23.40;99.90;;;;;;5073413;28;20074;-60
2021/05/31 10:58:59;;;;;;;14.90;8.55;;;23.50;99.90;;;;;;5068949;28;20089;-61
2021/05/31 11:01:27;;;;;;;17.13;7.90;;;23.50;99.90;;;;;;5068912;28;20107;-61
2021/05/31 11:04:00;;;;;;;9.85;6.45;;;23.80;99.90;;;;;;5064548;28;20055;-62
2021/05/31 11:06:29;;;;;;;15.80;7.45;;;24.00;99.90;;;;;;5068173;28;20522;-61
2021/05/31 11:08:56;;;;;;;17.33;6.78;;;24.10;99.90;;;;;;5071381;28;20020;-61
2021/05/31 11:11:29;;;;;;;13.25;6.63;;;24.00;99.90;;;;;;5073320;28;20044;-61
2021/05/31 11:13:56;;;;;;;13.15;6.90;;;24.00;99.90;;;;;;5068803;28;20024;-61
2021/05/31 11:16:22;;;;;;;15.35;8.38;;;24.00;99.90;;;;;;5073125;28;20114;-59
2021/05/31 11:18:54;;;;;;;14.27;7.65;;;23.80;99.90;;;;;;5067492;28;20017;-60
2021/05/31 11:21:39;;;;;;;12.23;7.47;;;23.50;99.90;;;;;;5064702;28;20068;-60
2021/05/31 11:24:13;;;;;;;12.52;6.03;;;23.20;99.90;;;;;;5071440;28;20020;-60
2021/05/31 11:26:41;;;;;;;12.70;7.30;;;23.50;99.90;;;;;;5072284;28;20127;-59
2021/05/31 11:29:09;;;;;;;11.90;6.55;;;23.30;99.90;;;;;;5071024;28;20089;-59
2021/05/31 11:31:37;;;;;;;12.35;6.10;;;23.30;99.90;;;;;;5064075;28;20032;-60
2021/05/31 11:34:04;;;;;;;15.52;6.68;;;23.40;99.90;;;;;;5071528;28;20111;-60
2021/05/31 11:36:41;;;;;;;11.50;6.13;;;23.80;99.90;;;;;;5072174;28;20070;-59
2021/05/31 11:39:08;;;;;;;11.90;5.70;;;24.00;99.90;;;;;;5071180;28;20028;-60
2021/05/31 11:41:39;;;;;;;11.90;5.90;;;23.90;99.90;;;;;;5070783;28;20402;-60
2021/05/31 11:44:07;;;;;;;10.82;5.82;;;23.90;99.90;;;;;;5071216;28;20034;-60
2021/05/31 11:46:47;;;;;;;9.63;5.70;;;23.80;99.90;;;;;;5072061;28;20688;-60
2021/05/31 11:49:12;;;;;;;9.98;5.70;;;23.60;99.90;;;;;;5085314;28;20042;-61
2021/05/31 11:51:38;;;;;;;10.05;5.13;;;23.80;99.90;;;;;;5072080;28;20537;-62
2021/05/31 11:54:06;;;;;;;14.13;5.53;;;24.00;99.90;;;;;;5071686;28;20032;-60
2021/05/31 11:56:34;;;;;;;15.50;5.50;;;24.10;99.90;;;;;;5071994;28;20462;-60
2021/05/31 11:59:00;;;;;;;10.30;4.97;;;23.80;99.90;;;;;;5070294;28;20466;-60
2021/05/31 12:01:29;;;;;;;10.65;5.50;;;23.80;99.90;;;;;;5071919;28;20052;-60
2021/05/31 12:03:55;;;;;;;9.65;4.90;;;23.60;99.90;;;;;;5070504;28;20024;-59
2021/05/31 12:06:21;;;;;;;9.23;5.20;;;23.70;99.90;;;;;;5071189;28;20032;-59
2021/05/31 12:08:49;;;;;;;6.90;4.35;;;23.80;99.90;;;;;;5062413;28;20033;-59
2021/05/31 12:11:27;;;;;;;9.20;4.78;;;23.80;99.90;;;;;;5064983;28;20419;-60
2021/05/31 12:14:02;;;;;;;10.68;4.88;;;23.70;99.90;;;;;;5062667;28;20029;-60
2021/05/31 12:16:28;;;;;;;10.57;4.60;;;23.90;99.90;;;;;;5071933;28;20097;-59
2021/05/31 12:18:54;;;;;;;9.63;5.90;;;24.00;99.90;;;;;;5071193;28;20036;-60
2021/05/31 12:21:20;;;;;;;10.38;5.03;;;24.20;99.90;;;;;;5070776;28;20165;-60
2021/05/31 12:23:50;;;;;;;10.73;4.95;;;24.30;99.90;;;;;;5071230;28;20033;-60
2021/05/31 12:26:21;;;;;;;8.80;4.68;;;24.40;99.90;;;;;;5070580;28;20055;-59
2021/05/31 12:28:52;;;;;;;8.25;4.82;;;24.20;99.90;;;;;;5070519;28;20036;-60
2021/05/31 12:31:18;;;;;;;10.93;4.95;;;24.00;99.90;;;;;;5068654;28;20060;-58
2021/05/31 12:33:44;;;;;;;8.80;5.22;;;24.00;99.90;;;;;;5056910;28;20518;-61
2021/05/31 12:36:10;;;;;;;9.13;5.43;;;23.90;99.90;;;;;;5071187;28;20055;-59
2021/05/31 12:38:39;;;;;;;8.77;5.43;;;23.80;99.90;;;;;;5069522;28;20490;-61
2021/05/31 12:41:04;;;;;;;10.45;5.13;;;23.90;99.90;;;;;;5056650;28;20544;-59
2021/05/31 12:43:35;;;;;;;11.23;4.95;;;23.80;99.90;;;;;;5069384;28;20029;-60
2021/05/31 12:46:01;;;;;;;9.63;5.25;;;23.90;99.90;;;;;;5071402;28;20028;-60
2021/05/31 12:48:27;;;;;;;9.77;5.20;;;23.80;99.90;;;;;;5076146;28;20070;-60